.
WxDataArchive / Data Records for 2010-11-11
2010-11-10 November 2010 2010-11-12

Data Records for Thursday, 11 November 2010

Time	Temp	Chill	HIndex	Humid	Dewpt	 Wind 	HiWind	WindDir	Rain 	Barom 
-----	----	-----	------	-----	-----	------	------	-------	-----	----- 
00:00	40.5	40.5	40.5	92	38.4	0	0	---	0.00	30.280 
00:05	40.2	40.2	40.2	92	38.1	0	0	---	0.00	30.280 
00:10	39.9	39.9	39.9	92	37.8	0	0	---	0.00	30.280 
00:15	39.6	39.6	39.6	92	37.5	0	0	---	0.00	30.280 
00:20	39.5	39.5	39.5	92	37.4	0	0	---	0.00	30.280 
00:25	39.2	39.2	39.2	92	37.1	0	0	---	0.00	30.280 
00:30	39.1	39.1	39.1	92	37.0	0	0	---	0.00	30.277 
00:35	39.1	39.1	39.1	92	37.0	0	0	---	0.00	30.277 
00:40	39.1	39.1	39.1	92	37.0	0	0	---	0.00	30.277 
00:45	39.1	39.1	39.1	92	37.0	0	0	---	0.00	30.279 
00:50	39.2	39.2	39.2	93	37.3	0	0	---	0.00	30.279 
00:55	39.5	39.5	39.5	93	37.6	0	1	90	0.00	30.279 
01:00	40.1	40.1	40.1	94	38.5	1	5	90	0.00	30.276 
01:05	40.6	40.6	40.6	94	39.0	1	6	90	0.00	30.276 
01:10	40.6	40.6	40.6	94	39.0	0	2	90	0.00	30.276 
01:15	40.8	40.8	40.8	94	39.2	1	4	90	0.00	30.278 
01:20	40.8	40.8	40.8	94	39.2	1	3	90	0.00	30.278 
01:25	40.6	40.6	40.6	94	39.0	0	1	90	0.00	30.278 
01:30	40.6	40.6	40.6	94	39.0	0	1	90	0.00	30.283 
01:35	40.5	40.5	40.5	94	38.9	0	3	90	0.00	30.283 
01:40	40.3	40.3	40.3	94	38.7	0	1	90	0.00	30.283 
01:45	40.3	40.3	40.3	94	38.7	0	0	---	0.00	30.287 
01:50	40.2	40.2	40.2	94	38.6	0	1	90	0.00	30.287 
01:55	40.1	40.1	40.1	94	38.5	0	3	90	0.00	30.287 
02:00	40.1	40.1	40.1	95	38.8	0	2	90	0.00	30.287 
02:05	39.9	39.9	39.9	95	38.6	0	1	90	0.00	30.287 
02:10	39.9	39.9	39.9	95	38.6	0	3	90	0.00	30.287 
02:15	39.9	39.9	39.9	95	38.6	0	1	90	0.00	30.288 
02:20	40.1	40.1	40.1	95	38.8	0	2	90	0.00	30.288 
02:25	40.1	40.1	40.1	95	38.8	0	2	90	0.00	30.288 
02:30	40.2	40.2	40.2	95	38.9	0	3	90	0.00	30.289 
02:35	40.2	40.2	40.2	95	38.9	0	0	---	0.00	30.289 
02:40	40.2	40.2	40.2	95	38.9	0	1	90	0.00	30.289 
02:45	40.3	40.3	40.3	95	39.0	0	1	90	0.00	30.295 
02:50	40.5	40.5	40.5	95	39.2	0	2	90	0.00	30.295 
02:55	40.5	40.5	40.5	95	39.2	1	4	90	0.00	30.295 
03:00	40.5	40.5	40.5	95	39.2	1	3	90	0.00	30.296 
03:05	40.3	40.3	40.3	95	39.0	0	2	90	0.00	30.296 
03:10	40.2	40.2	40.2	95	38.9	0	1	90	0.00	30.296 
03:15	40.2	40.2	40.2	95	38.9	1	3	90	0.00	30.303 
03:20	40.1	40.1	40.1	95	38.8	1	2	90	0.00	30.303 
03:25	39.9	39.9	39.9	95	38.6	1	5	90	0.00	30.303 
03:30	39.6	39.6	39.6	95	38.3	1	4	90	0.00	30.301 
03:35	39.3	39.3	39.3	95	38.0	1	3	90	0.00	30.301 
03:40	39.1	39.1	39.1	95	37.8	0	2	90	0.00	30.301 
03:45	38.9	38.9	38.9	96	37.9	1	3	90	0.00	30.304 
03:50	38.9	38.9	38.9	96	37.9	1	2	90	0.00	30.304 
03:55	38.8	38.8	38.8	96	37.8	1	4	90	0.00	30.304 
04:00	38.8	38.8	38.8	96	37.8	0	3	90	0.00	30.304 
04:05	38.6	38.6	38.6	96	37.6	1	4	90	0.00	30.304 
04:10	38.6	38.6	38.6	96	37.6	0	2	90	0.00	30.304 
04:15	38.5	38.5	38.5	96	37.5	0	2	90	0.00	30.308 
04:20	38.5	38.5	38.5	96	37.5	0	2	90	0.00	30.308 
04:25	38.5	38.5	38.5	96	37.5	0	1	90	0.00	30.308 
04:30	38.5	38.5	38.5	96	37.5	0	1	90	0.00	30.309 
04:35	38.6	38.6	38.6	96	37.6	0	2	90	0.00	30.309 
04:40	38.5	38.5	38.5	96	37.5	1	2	90	0.00	30.309 
04:45	38.3	38.3	38.3	96	37.3	0	2	90	0.00	30.316 
04:50	38.2	38.2	38.2	96	37.2	1	3	90	0.00	30.316 
04:55	38.2	38.2	38.2	96	37.2	1	3	90	0.00	30.316 
05:00	38.0	38.0	38.0	96	37.0	1	3	90	0.00	30.321 
05:05	38.0	38.0	38.0	96	37.0	0	2	90	0.00	30.321 
05:10	38.0	38.0	38.0	96	37.0	0	3	90	0.00	30.321 
05:15	38.0	38.0	38.0	96	37.0	0	2	90	0.00	30.328 
05:20	38.0	38.0	38.0	96	37.0	0	2	90	0.00	30.328 
05:25	37.9	37.9	37.9	96	36.9	0	1	90	0.00	30.328 
05:30	38.0	38.0	38.0	96	37.0	0	0	---	0.00	30.329 
05:35	38.0	38.0	38.0	96	37.0	0	2	90	0.00	30.329 
05:40	38.0	38.0	38.0	96	37.0	0	2	90	0.00	30.329 
05:45	38.0	38.0	38.0	96	37.0	0	2	90	0.00	30.339 
05:50	37.9	37.9	37.9	96	36.9	1	2	90	0.00	30.339 
05:55	37.9	37.9	37.9	96	36.9	1	3	90	0.00	30.339 
06:00	37.9	37.9	37.9	96	36.9	1	3	90	0.00	30.334 
06:05	37.9	37.9	37.9	96	36.9	1	3	90	0.00	30.334 
06:10	37.8	37.8	37.8	96	36.8	1	3	90	0.00	30.334 
06:15	37.8	37.8	37.8	96	36.8	0	2	90	0.00	30.337 
06:20	37.8	37.8	37.8	96	36.8	1	4	90	0.00	30.337 
06:25	37.6	37.6	37.6	96	36.6	1	3	90	0.00	30.337 
06:30	37.5	37.5	37.5	96	36.5	0	2	90	0.00	30.339 
06:35	37.5	37.5	37.5	96	36.5	0	2	90	0.00	30.339 
06:40	37.5	37.5	37.5	96	36.5	1	3	90	0.00	30.339 
06:45	37.5	37.5	37.5	96	36.5	0	2	90	0.00	30.345 
06:50	37.3	37.3	37.3	96	36.3	0	1	90	0.00	30.345 
06:55	37.3	37.3	37.3	96	36.3	1	3	90	0.00	30.345 
07:00	37.3	37.3	37.3	96	36.3	1	3	90	0.00	30.346 
07:05	37.2	37.2	37.2	96	36.2	0	3	90	0.00	30.346 
07:10	37.2	37.2	37.2	96	36.2	0	2	90	0.00	30.346 
07:15	37.2	37.2	37.2	96	36.2	0	1	90	0.00	30.352 
07:20	37.2	37.2	37.2	96	36.2	0	2	90	0.00	30.352 
07:25	37.2	37.2	37.2	96	36.2	1	2	90	0.00	30.352 
07:30	37.0	37.0	37.0	96	36.0	1	3	90	0.00	30.356 
07:35	37.0	37.0	37.0	96	36.0	1	3	90	0.00	30.356 
07:40	37.0	37.0	37.0	96	36.0	0	2	90	0.00	30.356 
07:45	37.0	37.0	37.0	96	36.0	0	2	90	0.00	30.363 
07:50	37.0	37.0	37.0	96	36.0	0	2	90	0.00	30.363 
07:55	37.2	37.2	37.2	96	36.2	0	3	90	0.00	30.363 
08:00	37.2	37.2	37.2	96	36.2	1	2	90	0.00	30.367 
08:05	37.2	37.2	37.2	96	36.2	0	1	90	0.00	30.367 
08:10	37.2	37.2	37.2	96	36.2	0	3	90	0.00	30.367 
08:15	37.2	37.2	37.2	96	36.2	0	3	90	0.00	30.373 
08:20	37.2	37.2	37.2	96	36.2	0	2	90	0.00	30.373 
08:25	37.3	37.3	37.3	97	36.5	0	2	90	0.00	30.373 
08:30	37.3	37.3	37.3	97	36.5	0	2	90	0.00	30.382 
08:35	37.6	37.6	37.6	97	36.8	0	2	90	0.00	30.382 
08:40	37.8	37.8	37.8	97	37.0	0	2	90	0.00	30.382 
08:45	37.8	37.8	37.8	97	37.0	1	4	90	0.00	30.382 
08:50	37.8	37.8	37.8	97	37.0	1	3	90	0.00	30.382 
08:55	37.9	37.9	37.9	97	37.1	1	3	90	0.00	30.382 
09:00	38.0	38.0	38.0	97	37.2	0	2	90	0.00	30.382 
09:05	38.2	38.2	38.2	97	37.4	0	1	90	0.00	30.382 
09:10	38.3	38.3	38.3	97	37.5	1	3	90	0.00	30.382 
09:15	38.3	38.3	38.3	97	37.5	1	4	90	0.00	30.384 
09:20	38.6	38.6	38.6	97	37.8	1	2	90	0.00	30.384 
09:25	38.9	38.9	38.9	97	38.1	0	3	90	0.00	30.384 
09:30	39.1	39.1	39.1	97	38.3	0	2	90	0.00	30.386 
09:35	39.1	39.1	39.1	97	38.3	1	3	90	0.00	30.386 
09:40	39.2	39.2	39.2	97	38.4	1	4	90	0.00	30.386 
09:45	39.3	39.3	39.3	97	38.5	1	3	90	0.00	30.388 
09:50	39.5	39.5	39.5	97	38.7	1	4	90	0.00	30.388 
09:55	39.6	39.6	39.6	97	38.8	2	3	90	0.00	30.388 
10:00	40.1	40.1	40.1	97	39.3	1	3	90	0.00	30.388 
10:05	40.2	40.2	40.2	97	39.4	1	4	90	0.00	30.388 
10:10	40.6	40.6	40.6	97	39.8	1	3	90	0.00	30.388 
10:15	41.2	41.2	41.2	97	40.4	1	3	90	0.00	30.392 
10:20	41.6	41.6	41.6	97	40.8	1	3	90	0.00	30.392 
10:25	41.6	41.6	41.6	97	40.8	1	4	90	0.00	30.392 
10:30	41.8	41.8	41.8	97	41.0	0	2	90	0.00	30.390 
10:35	42.1	42.1	42.1	97	41.3	1	3	90	0.00	30.390 
10:40	42.6	42.6	42.6	97	41.8	1	3	90	0.00	30.390 
10:45	43.1	43.1	43.1	97	42.3	1	3	90	0.00	30.388 
10:50	43.3	43.3	43.3	97	42.5	1	3	90	0.00	30.388 
10:55	43.3	43.3	43.3	97	42.5	0	3	90	0.00	30.388 
11:00	43.6	43.6	43.6	97	42.8	1	4	90	0.00	30.389 
11:05	43.8	43.8	43.8	97	43.0	1	2	90	0.00	30.389 
11:10	44.1	44.1	44.1	97	43.3	1	3	90	0.00	30.389 
11:15	44.5	44.5	44.5	97	43.7	1	3	90	0.00	30.392 
11:20	44.9	44.9	44.9	97	44.1	1	3	90	0.00	30.392 
11:25	45.2	45.2	45.2	97	44.4	0	2	90	0.00	30.392 
11:30	45.7	45.7	45.7	97	44.9	0	1	90	0.00	30.388 
11:35	45.8	45.8	45.8	97	45.0	1	2	90	0.00	30.388 
11:40	46.2	46.2	46.2	97	45.4	0	2	90	0.00	30.388 
11:45	47.0	47.0	47.0	97	46.2	1	2	90	0.00	30.381 
11:50	47.6	47.6	47.6	97	46.8	1	3	90	0.00	30.381 
11:55	48.2	48.2	48.2	96	47.1	1	3	90	0.00	30.381 
12:00	48.5	48.5	48.5	95	47.1	0	3	90	0.00	30.377 
12:05	48.9	48.9	48.9	95	47.5	1	3	90	0.00	30.377 
12:10	49.2	49.2	49.2	94	47.5	1	3	90	0.00	30.377 
12:15	49.8	49.8	49.8	92	47.6	0	4	90	0.00	30.376 
12:20	50.5	50.5	50.5	88	47.1	1	3	90	0.00	30.376 
12:25	51.0	51.0	51.0	84	46.3	1	3	90	0.00	30.376 
12:30	51.7	51.7	51.7	79	45.4	0	2	90	0.00	30.371 
12:35	52.3	52.3	52.3	74	44.3	1	4	90	0.00	30.371 
12:40	53.1	53.1	53.1	71	43.9	1	2	90	0.00	30.371 
12:45	53.8	53.8	53.8	68	43.5	1	2	90	0.00	30.371 
12:50	54.7	54.7	54.7	65	43.2	0	2	90	0.00	30.371 
12:55	55.6	55.6	55.6	63	43.2	0	2	90	0.00	30.371 
13:00	56.3	56.3	56.3	61	43.0	1	3	90	0.00	30.369 
13:05	57.2	57.2	57.2	58	42.6	1	3	90	0.00	30.369 
13:10	57.8	57.8	57.8	58	43.1	1	3	90	0.00	30.369 
13:15	58.4	58.4	58.4	57	43.2	1	3	90	0.00	30.365 
13:20	59.0	59.0	59.0	56	43.3	0	2	90	0.00	30.365 
13:25	59.6	59.6	59.6	54	42.9	1	3	90	0.00	30.365 
13:30	60.2	60.2	60.2	54	43.5	1	4	90	0.00	30.358 
13:35	60.5	60.5	60.5	53	43.3	0	3	90	0.00	30.358 
13:40	60.9	60.9	60.9	51	42.6	0	1	90	0.00	30.358 
13:45	61.3	61.3	61.3	51	43.0	0	2	90	0.00	30.354 
13:50	61.8	61.8	61.8	50	43.0	1	3	90	0.00	30.354 
13:55	62.1	62.1	62.1	48	42.2	0	2	90	0.00	30.354 
14:00	62.6	62.6	62.6	48	42.6	1	3	90	0.00	30.351 
14:05	63.1	63.1	63.1	46	42.0	1	4	90	0.00	30.351 
14:10	63.7	63.7	63.7	45	42.0	1	4	90	0.00	30.351 
14:15	64.0	64.0	64.0	43	41.1	1	4	90	0.00	30.348 
14:20	64.5	64.5	64.5	43	41.5	0	2	90	0.00	30.348 
14:25	64.8	64.8	64.8	43	41.8	0	2	90	0.00	30.348 
14:30	65.0	65.0	65.0	42	41.3	1	2	90	0.00	30.346 
14:35	65.3	65.3	65.3	41	41.0	1	3	90	0.00	30.346 
14:40	65.5	65.5	65.5	41	41.2	1	4	90	0.00	30.346 
14:45	65.8	65.8	65.8	40	40.8	1	3	90	0.00	30.346 
14:50	66.0	66.0	66.0	40	41.0	0	1	90	0.00	30.346 
14:55	66.1	66.1	66.1	40	41.1	0	2	90	0.00	30.346 
15:00	66.4	66.4	66.4	39	40.7	1	2	90	0.00	30.347 
15:05	66.6	66.6	66.6	39	40.9	1	3	90	0.00	30.347 
15:10	66.8	66.8	66.8	39	41.0	0	1	90	0.00	30.347 
15:15	66.9	66.9	66.9	38	40.5	0	1	90	0.00	30.348 
15:20	67.1	67.1	67.1	38	40.6	1	3	90	0.00	30.348 
15:25	67.3	67.3	67.3	37	40.1	1	3	90	0.00	30.348 
15:30	67.4	67.4	67.4	36	39.5	1	3	90	0.00	30.351 
15:35	67.6	67.6	67.6	36	39.7	0	3	90	0.00	30.351 
15:40	67.6	67.6	67.6	35	39.0	1	2	90	0.00	30.351 
15:45	67.6	67.6	67.6	35	39.0	1	2	90	0.00	30.352 
15:50	67.6	67.6	67.6	35	39.0	0	1	90	0.00	30.352 
15:55	67.6	67.6	67.6	36	39.7	1	3	90	0.00	30.352 
16:00	67.4	67.4	67.4	36	39.5	0	2	90	0.00	30.356 
16:05	67.4	67.4	67.4	36	39.5	0	2	90	0.00	30.356 
16:10	67.4	67.4	67.4	36	39.5	0	1	90	0.00	30.356 
16:15	67.3	67.3	67.3	36	39.4	0	1	90	0.00	30.360 
16:20	67.3	67.3	67.3	36	39.4	0	1	90	0.00	30.360 
16:25	67.1	67.1	67.1	36	39.2	0	1	90	0.00	30.360 
16:30	67.1	67.1	67.1	36	39.2	0	1	90	0.00	30.357 
16:35	66.9	66.9	66.9	37	39.8	0	1	90	0.00	30.357 
16:40	66.8	66.8	66.8	37	39.7	0	0	---	0.00	30.357 
16:45	66.4	66.4	66.4	37	39.3	0	1	90	0.00	30.356 
16:50	66.3	66.3	66.3	38	39.9	0	0	---	0.00	30.356 
16:55	66.0	66.0	66.0	39	40.3	0	0	---	0.00	30.356 
17:00	65.5	65.5	65.5	39	39.9	0	0	---	0.00	30.356 
17:05	65.0	65.0	65.0	40	40.1	0	0	---	0.00	30.356 
17:10	64.5	64.5	64.5	40	39.6	0	0	---	0.00	30.356 
17:15	63.9	63.9	63.9	41	39.7	0	0	---	0.00	30.362 
17:20	63.4	63.4	63.4	42	39.9	0	0	---	0.00	30.362 
17:25	62.6	62.6	62.6	43	39.8	0	0	---	0.00	30.362 
17:30	61.8	61.8	61.8	44	39.7	0	0	---	0.00	30.363 
17:35	61.2	61.2	61.2	45	39.7	0	0	---	0.00	30.363 
17:40	60.4	60.4	60.4	46	39.5	0	0	---	0.00	30.363 
17:45	59.6	59.6	59.6	48	39.9	0	0	---	0.00	30.367 
17:50	58.9	58.9	58.9	49	39.8	0	0	---	0.00	30.367 
17:55	58.3	58.3	58.3	50	39.7	0	0	---	0.00	30.367 
18:00	57.6	57.6	57.6	52	40.1	0	0	---	0.00	30.370 
18:05	57.0	57.0	57.0	54	40.5	0	0	---	0.00	30.370 
18:10	56.5	56.5	56.5	55	40.5	0	0	---	0.00	30.370 
18:15	55.9	55.9	55.9	56	40.4	0	0	---	0.00	30.376 
18:20	55.4	55.4	55.4	56	40.0	0	0	---	0.00	30.376 
18:25	54.8	54.8	54.8	58	40.3	0	0	---	0.00	30.376 
18:30	54.4	54.4	54.4	58	39.9	0	0	---	0.00	30.377 
18:35	53.9	53.9	53.9	59	39.9	0	0	---	0.00	30.377 
18:40	53.5	53.5	53.5	60	40.0	0	0	---	0.00	30.377 
18:45	53.2	53.2	53.2	61	40.1	0	0	---	0.00	30.384 
18:50	52.8	52.8	52.8	62	40.1	0	0	---	0.00	30.384 
18:55	52.3	52.3	52.3	63	40.1	0	0	---	0.00	30.384 
19:00	52.0	52.0	52.0	64	40.2	0	0	---	0.00	30.389 
19:05	51.6	51.6	51.6	65	40.2	0	0	---	0.00	30.389 
19:10	51.3	51.3	51.3	64	39.5	0	0	---	0.00	30.389 
19:15	51.0	51.0	51.0	65	39.7	0	0	---	0.00	30.391 
19:20	50.8	50.8	50.8	66	39.9	0	0	---	0.00	30.391 
19:25	50.5	50.5	50.5	66	39.6	0	0	---	0.00	30.391 
19:30	50.4	50.4	50.4	67	39.9	0	0	---	0.00	30.394 
19:35	50.1	50.1	50.1	67	39.6	0	0	---	0.00	30.394 
19:40	49.9	49.9	49.9	68	39.8	0	0	---	0.00	30.394 
19:45	49.8	49.8	49.8	68	39.7	0	0	---	0.00	30.396 
19:50	49.5	49.5	49.5	69	39.8	0	0	---	0.00	30.396 
19:55	49.4	49.4	49.4	69	39.7	0	0	---	0.00	30.396 
20:00	49.1	49.1	49.1	70	39.7	0	0	---	0.00	30.397 
20:05	48.8	48.8	48.8	70	39.5	0	0	---	0.00	30.397 
20:10	48.5	48.5	48.5	70	39.2	0	0	---	0.00	30.397 
20:15	48.5	48.5	48.5	72	39.9	0	0	---	0.00	30.397 
20:20	48.2	48.2	48.2	72	39.6	0	0	---	0.00	30.397 
20:25	48.0	48.0	48.0	72	39.4	0	0	---	0.00	30.397 
20:30	47.9	47.9	47.9	73	39.7	0	0	---	0.00	30.397 
20:35	47.6	47.6	47.6	73	39.4	0	0	---	0.00	30.397 
20:40	47.4	47.4	47.4	73	39.2	0	0	---	0.00	30.397 
20:45	47.3	47.3	47.3	74	39.4	0	0	---	0.00	30.399 
20:50	47.0	47.0	47.0	75	39.5	0	0	---	0.00	30.399 
20:55	46.8	46.8	46.8	75	39.3	0	0	---	0.00	30.399 
21:00	46.7	46.7	46.7	75	39.2	0	0	---	0.00	30.401 
21:05	46.4	46.4	46.4	76	39.3	0	0	---	0.00	30.401 
21:10	46.2	46.2	46.2	76	39.1	0	0	---	0.00	30.401 
21:15	46.2	46.2	46.2	77	39.4	0	0	---	0.00	30.403 
21:20	46.1	46.1	46.1	77	39.3	0	0	---	0.00	30.403 
21:25	45.8	45.8	45.8	77	39.0	0	0	---	0.00	30.403 
21:30	45.7	45.7	45.7	77	38.9	0	0	---	0.00	30.405 
21:35	45.5	45.5	45.5	78	39.0	0	0	---	0.00	30.405 
21:40	45.5	45.5	45.5	78	39.0	0	0	---	0.00	30.405 
21:45	45.4	45.4	45.4	78	38.9	0	0	---	0.00	30.407 
21:50	45.2	45.2	45.2	79	39.1	0	0	---	0.00	30.407 
21:55	45.2	45.2	45.2	79	39.1	0	0	---	0.00	30.407 
22:00	45.2	45.2	45.2	79	39.1	0	0	---	0.00	30.411 
22:05	45.2	45.2	45.2	79	39.1	0	0	---	0.00	30.411 
22:10	45.1	45.1	45.1	79	39.0	0	0	---	0.00	30.411 
22:15	44.9	44.9	44.9	79	38.8	0	0	---	0.00	30.407 
22:20	44.9	44.9	44.9	80	39.1	0	0	---	0.00	30.407 
22:25	44.8	44.8	44.8	80	39.0	0	0	---	0.00	30.407 
22:30	44.6	44.6	44.6	80	38.8	0	0	---	0.00	30.405 
22:35	44.5	44.5	44.5	81	39.0	0	0	---	0.00	30.405 
22:40	44.3	44.3	44.3	81	38.8	0	0	---	0.00	30.405 
22:45	44.2	44.2	44.2	81	38.7	0	0	---	0.00	30.402 
22:50	44.2	44.2	44.2	82	39.1	0	0	---	0.00	30.402 
22:55	44.1	44.1	44.1	82	39.0	0	0	---	0.00	30.402 
23:00	43.9	43.9	43.9	82	38.8	0	0	---	0.00	30.397 
23:05	43.6	43.6	43.6	83	38.8	0	0	---	0.00	30.397 
23:10	43.5	43.5	43.5	83	38.7	0	0	---	0.00	30.397 
23:15	43.3	43.3	43.3	83	38.5	0	0	---	0.00	30.392 
23:20	43.2	43.2	43.2	84	38.7	0	0	---	0.00	30.392 
23:25	43.1	43.1	43.1	84	38.6	0	0	---	0.00	30.392 
23:30	42.9	42.9	42.9	84	38.4	0	0	---	0.00	30.391 
23:35	42.8	42.8	42.8	84	38.3	0	0	---	0.00	30.391 
23:40	42.6	42.6	42.6	84	38.1	0	0	---	0.00	30.391 
23:45	42.5	42.5	42.5	84	38.0	0	0	---	0.00	30.391 
23:50	42.5	42.5	42.5	84	38.0	0	0	---	0.00	30.391 
23:55	42.3	42.3	42.3	84	37.8	0	0	---	0.00	30.391 

CoCoRaHS
IN-AL-39
A2 Web Hosting
Creative Commons License
GoDaddy
search engine by freefind advanced

loaded 2018-11-20 03:42:49 • last modified 2010-11-18 10:43:29
Privacy PolicyDisclaimer
• wx.awcolley.com is powered by PmWiki v.2002016 •
• all content (unless otherwise noted) © 2018 A W Colley